Lisbon, North Dakota
Current Conditions -  °F | °C
As of 5:55 AM on Saturday 25 Oct 2014 (Local Time) from KGWR Reporting Station
Clear Clear  
Wind Chill: 45°   Ceiling: Unl
Heat Index: 48°   Visibility: 10mi
Dew Point: 32°   Wind: 8mph
Humidity: 54%   Direction: 270°W
Pressure: 30.08"   Gusts: NA
Location:  46.44°N, 97.68°W
Report Text: KGWR 251055Z AUTO 27007KT 10SM CLR 09/00 A3008 RMK A01 P000
Loading
Personal Weather Stations






























Interactive Weather Map
Tropical Storm Tracking
New forecast layout! Learn more

10-Day Weather Forecast

Advertisements
Track Severe Weather on mobile